sensor_id;sensor_type;location;lat;lon;timestamp;temperature;humidity
32366;DHT22;18837;46.832;16.838;2022-10-31T00:01:42;14.40;93.30
32366;DHT22;18837;46.832;16.838;2022-10-31T00:04:09;14.40;93.40
32366;DHT22;18837;46.832;16.838;2022-10-31T00:06:34;14.40;93.20
32366;DHT22;18837;46.832;16.838;2022-10-31T00:09:25;14.40;93.30
32366;DHT22;18837;46.832;16.838;2022-10-31T00:15:35;14.30;94.90
32366;DHT22;18837;46.832;16.838;2022-10-31T00:18:01;14.30;93.40
32366;DHT22;18837;46.832;16.838;2022-10-31T00:20:27;14.30;93.40
32366;DHT22;18837;46.832;16.838;2022-10-31T00:22:53;14.30;93.50
32366;DHT22;18837;46.832;16.838;2022-10-31T00:25:18;14.30;93.40
32366;DHT22;18837;46.832;16.838;2022-10-31T00:27:52;14.30;93.40
32366;DHT22;18837;46.832;16.838;2022-10-31T00:30:17;14.30;93.60
32366;DHT22;18837;46.832;16.838;2022-10-31T00:32:43;14.30;93.40
32366;DHT22;18837;46.832;16.838;2022-10-31T00:35:09;14.30;93.70
32366;DHT22;18837;46.832;16.838;2022-10-31T00:37:34;14.20;93.40
32366;DHT22;18837;46.832;16.838;2022-10-31T00:40:00;14.30;93.70
32366;DHT22;18837;46.832;16.838;2022-10-31T00:42:26;14.30;93.40
32366;DHT22;18837;46.832;16.838;2022-10-31T00:45:10;14.30;93.40
32366;DHT22;18837;46.832;16.838;2022-10-31T00:47:48;14.30;93.40
32366;DHT22;18837;46.832;16.838;2022-10-31T00:50:14;14.30;93.20
32366;DHT22;18837;46.832;16.838;2022-10-31T00:52:39;14.30;93.40
32366;DHT22;18837;46.832;16.838;2022-10-31T00:55:05;14.30;93.20
32366;DHT22;18837;46.832;16.838;2022-10-31T00:57:32;14.30;93.70
32366;DHT22;18837;46.832;16.838;2022-10-31T00:59:58;14.30;93.30
32366;DHT22;18837;46.832;16.838;2022-10-31T01:02:39;14.30;93.30
32366;DHT22;18837;46.832;16.838;2022-10-31T01:05:05;14.30;93.30
32366;DHT22;18837;46.832;16.838;2022-10-31T01:07:30;14.30;93.40
32366;DHT22;18837;46.832;16.838;2022-10-31T01:09:56;14.30;93.40
32366;DHT22;18837;46.832;16.838;2022-10-31T01:12:22;14.20;93.40
32366;DHT22;18837;46.832;16.838;2022-10-31T01:14:47;14.30;93.40
32366;DHT22;18837;46.832;16.838;2022-10-31T01:17:13;14.30;93.40
32366;DHT22;18837;46.832;16.838;2022-10-31T01:19:51;14.30;93.40
32366;DHT22;18837;46.832;16.838;2022-10-31T01:22:29;14.30;93.30
32366;DHT22;18837;46.832;16.838;2022-10-31T01:24:55;14.20;93.50
32366;DHT22;18837;46.832;16.838;2022-10-31T01:27:21;14.20;93.40
32366;DHT22;18837;46.832;16.838;2022-10-31T01:29:46;14.20;93.40
32366;DHT22;18837;46.832;16.838;2022-10-31T01:32:12;14.20;93.20
32366;DHT22;18837;46.832;16.838;2022-10-31T01:34:37;14.20;93.80
32366;DHT22;18837;46.832;16.838;2022-10-31T01:37:22;14.20;93.50
32366;DHT22;18837;46.832;16.838;2022-10-31T01:39:50;14.20;93.20
32366;DHT22;18837;46.832;16.838;2022-10-31T01:42:19;14.20;93.50
32366;DHT22;18837;46.832;16.838;2022-10-31T01:47:21;14.20;93.20
32366;DHT22;18837;46.832;16.838;2022-10-31T01:49:54;14.20;93.20
32366;DHT22;18837;46.832;16.838;2022-10-31T01:52:41;14.20;93.20
32366;DHT22;18837;46.832;16.838;2022-10-31T01:55:28;14.30;93.20
32366;DHT22;18837;46.832;16.838;2022-10-31T01:58:04;14.20;93.20
32366;DHT22;18837;46.832;16.838;2022-10-31T02:00:32;14.20;93.30
32366;DHT22;18837;46.832;16.838;2022-10-31T02:02:58;14.20;93.40
32366;DHT22;18837;46.832;16.838;2022-10-31T02:05:27;14.20;93.50
32366;DHT22;18837;46.832;16.838;2022-10-31T02:08:06;14.20;93.40
32366;DHT22;18837;46.832;16.838;2022-10-31T02:10:33;14.20;93.30
32366;DHT22;18837;46.832;16.838;2022-10-31T02:13:10;14.10;93.40
32366;DHT22;18837;46.832;16.838;2022-10-31T02:15:39;14.20;93.40
32366;DHT22;18837;46.832;16.838;2022-10-31T02:18:06;14.10;93.30
32366;DHT22;18837;46.832;16.838;2022-10-31T02:21:23;14.10;93.50
32366;DHT22;18837;46.832;16.838;2022-10-31T02:41:36;14.20;93.40
32366;DHT22;18837;46.832;16.838;2022-10-31T02:44:29;14.20;94.70
32366;DHT22;18837;46.832;16.838;2022-10-31T02:47:17;14.20;94.70
32366;DHT22;18837;46.832;16.838;2022-10-31T02:52:27;14.20;94.70
32366;DHT22;18837;46.832;16.838;2022-10-31T02:54:53;14.10;93.30
32366;DHT22;18837;46.832;16.838;2022-10-31T02:57:33;14.10;93.40
32366;DHT22;18837;46.832;16.838;2022-10-31T03:00:05;14.10;94.80
32366;DHT22;18837;46.832;16.838;2022-10-31T03:06:17;14.10;94.80
32366;DHT22;18837;46.832;16.838;2022-10-31T03:08:52;14.10;93.40
32366;DHT22;18837;46.832;16.838;2022-10-31T03:11:24;14.10;93.40
32366;DHT22;18837;46.832;16.838;2022-10-31T03:16:51;14.00;94.70
32366;DHT22;18837;46.832;16.838;2022-10-31T03:19:21;14.10;94.70
32366;DHT22;18837;46.832;16.838;2022-10-31T03:22:10;14.00;93.30
32366;DHT22;18837;46.832;16.838;2022-10-31T03:24:39;14.10;93.30
32366;DHT22;18837;46.832;16.838;2022-10-31T03:27:08;14.10;93.50
32366;DHT22;18837;46.832;16.838;2022-10-31T03:29:36;14.10;93.30
32366;DHT22;18837;46.832;16.838;2022-10-31T03:32:10;14.10;93.40
32366;DHT22;18837;46.832;16.838;2022-10-31T03:34:39;14.00;93.20
32366;DHT22;18837;46.832;16.838;2022-10-31T03:37:29;14.10;93.30
32366;DHT22;18837;46.832;16.838;2022-10-31T03:40:20;14.10;94.40
32366;DHT22;18837;46.832;16.838;2022-10-31T03:42:57;14.10;93.40
32366;DHT22;18837;46.832;16.838;2022-10-31T03:45:27;14.10;93.30
32366;DHT22;18837;46.832;16.838;2022-10-31T03:47:54;14.10;93.40
32366;DHT22;18837;46.832;16.838;2022-10-31T03:50:21;14.10;93.50
32366;DHT22;18837;46.832;16.838;2022-10-31T03:52:55;14.10;93.40
32366;DHT22;18837;46.832;16.838;2022-10-31T03:56:26;14.00;93.20
32366;DHT22;18837;46.832;16.838;2022-10-31T03:58:38;14.00;94.70
32366;DHT22;18837;46.832;16.838;2022-10-31T04:01:07;14.00;93.30
32366;DHT22;18837;46.832;16.838;2022-10-31T04:03:36;14.00;93.30
32366;DHT22;18837;46.832;16.838;2022-10-31T04:06:08;14.00;93.40
32366;DHT22;18837;46.832;16.838;2022-10-31T04:08:45;14.00;93.50
32366;DHT22;18837;46.832;16.838;2022-10-31T04:11:35;14.00;93.60
32366;DHT22;18837;46.832;16.838;2022-10-31T04:14:29;14.00;93.40
32366;DHT22;18837;46.832;16.838;2022-10-31T04:17:04;14.00;94.80
32366;DHT22;18837;46.832;16.838;2022-10-31T04:19:32;14.00;93.40
32366;DHT22;18837;46.832;16.838;2022-10-31T04:21:58;14.00;93.40
32366;DHT22;18837;46.832;16.838;2022-10-31T04:24:23;14.00;93.80
32366;DHT22;18837;46.832;16.838;2022-10-31T04:26:49;14.00;93.60
32366;DHT22;18837;46.832;16.838;2022-10-31T04:29:15;14.00;93.50
32366;DHT22;18837;46.832;16.838;2022-10-31T04:31:46;14.00;93.50
32366;DHT22;18837;46.832;16.838;2022-10-31T04:34:11;14.00;93.20
32366;DHT22;18837;46.832;16.838;2022-10-31T04:36:37;14.00;93.30
32366;DHT22;18837;46.832;16.838;2022-10-31T04:39:03;14.00;93.30
32366;DHT22;18837;46.832;16.838;2022-10-31T04:41:28;14.00;93.70
32366;DHT22;18837;46.832;16.838;2022-10-31T04:43:54;14.00;93.50
32366;DHT22;18837;46.832;16.838;2022-10-31T04:46:38;14.00;93.40
32366;DHT22;18837;46.832;16.838;2022-10-31T04:49:16;14.00;93.30
32366;DHT22;18837;46.832;16.838;2022-10-31T04:51:42;13.90;93.30
32366;DHT22;18837;46.832;16.838;2022-10-31T04:54:07;14.00;93.40
32366;DHT22;18837;46.832;16.838;2022-10-31T04:56:33;13.90;93.60
32366;DHT22;18837;46.832;16.838;2022-10-31T04:58:59;13.90;93.30
32366;DHT22;18837;46.832;16.838;2022-10-31T05:01:24;13.90;93.50
32366;DHT22;18837;46.832;16.838;2022-10-31T05:04:08;13.90;93.40
32366;DHT22;18837;46.832;16.838;2022-10-31T05:06:33;13.90;94.80
32366;DHT22;18837;46.832;16.838;2022-10-31T05:08:59;13.90;93.40
32366;DHT22;18837;46.832;16.838;2022-10-31T05:11:25;13.90;93.30
32366;DHT22;18837;46.832;16.838;2022-10-31T05:13:50;13.90;93.30
32366;DHT22;18837;46.832;16.838;2022-10-31T05:16:16;14.00;93.30
32366;DHT22;18837;46.832;16.838;2022-10-31T05:18:41;14.00;93.40
32366;DHT22;18837;46.832;16.838;2022-10-31T05:21:15;14.00;93.40
32366;DHT22;18837;46.832;16.838;2022-10-31T05:23:53;14.00;93.30
32366;DHT22;18837;46.832;16.838;2022-10-31T05:26:18;14.00;93.40
32366;DHT22;18837;46.832;16.838;2022-10-31T05:28:44;14.00;93.60
32366;DHT22;18837;46.832;16.838;2022-10-31T05:31:10;14.00;93.30
32366;DHT22;18837;46.832;16.838;2022-10-31T05:33:35;13.90;93.50
32366;DHT22;18837;46.832;16.838;2022-10-31T05:36:01;13.90;93.40
32366;DHT22;18837;46.832;16.838;2022-10-31T05:38:30;13.90;93.40
32366;DHT22;18837;46.832;16.838;2022-10-31T05:40:56;13.90;93.40
32366;DHT22;18837;46.832;16.838;2022-10-31T05:43:28;13.90;94.40
32366;DHT22;18837;46.832;16.838;2022-10-31T05:45:55;13.90;93.50
32366;DHT22;18837;46.832;16.838;2022-10-31T05:48:21;13.90;93.40
32366;DHT22;18837;46.832;16.838;2022-10-31T05:50:48;13.90;93.50
32366;DHT22;18837;46.832;16.838;2022-10-31T05:53:15;13.90;93.70
32366;DHT22;18837;46.832;16.838;2022-10-31T05:55:42;13.90;93.40
32366;DHT22;18837;46.832;16.838;2022-10-31T05:58:14;13.90;93.50
32366;DHT22;18837;46.832;16.838;2022-10-31T06:00:40;13.90;93.50
32366;DHT22;18837;46.832;16.838;2022-10-31T06:03:07;13.90;93.40
32366;DHT22;18837;46.832;16.838;2022-10-31T06:05:33;13.90;93.30
32366;DHT22;18837;46.832;16.838;2022-10-31T06:07:59;13.90;93.40
32366;DHT22;18837;46.832;16.838;2022-10-31T06:10:25;13.90;93.90
32366;DHT22;18837;46.832;16.838;2022-10-31T06:12:51;13.90;93.80
32366;DHT22;18837;46.832;16.838;2022-10-31T06:15:20;13.90;93.20
32366;DHT22;18837;46.832;16.838;2022-10-31T06:17:46;13.90;93.20
32366;DHT22;18837;46.832;16.838;2022-10-31T06:20:12;13.90;93.30
32366;DHT22;18837;46.832;16.838;2022-10-31T06:22:37;13.90;93.40
32366;DHT22;18837;46.832;16.838;2022-10-31T06:25:03;13.90;93.30
32366;DHT22;18837;46.832;16.838;2022-10-31T06:27:29;13.90;93.80
32366;DHT22;18837;46.832;16.838;2022-10-31T06:30:14;13.90;93.50
32366;DHT22;18837;46.832;16.838;2022-10-31T06:33:00;13.90;93.60
32366;DHT22;18837;46.832;16.838;2022-10-31T06:35:26;13.90;93.40
32366;DHT22;18837;46.832;16.838;2022-10-31T06:37:53;13.80;94.00
32366;DHT22;18837;46.832;16.838;2022-10-31T06:40:19;13.80;93.40
32366;DHT22;18837;46.832;16.838;2022-10-31T06:42:44;13.80;93.50
32366;DHT22;18837;46.832;16.838;2022-10-31T06:45:10;13.80;93.50
32366;DHT22;18837;46.832;16.838;2022-10-31T06:47:58;13.80;93.70
32366;DHT22;18837;46.832;16.838;2022-10-31T06:50:23;13.80;94.70
32366;DHT22;18837;46.832;16.838;2022-10-31T06:52:57;13.80;93.50
32366;DHT22;18837;46.832;16.838;2022-10-31T06:55:24;13.80;94.40
32366;DHT22;18837;46.832;16.838;2022-10-31T07:00:20;13.90;93.40
32366;DHT22;18837;46.832;16.838;2022-10-31T07:03:25;13.90;93.50
32366;DHT22;18837;46.832;16.838;2022-10-31T07:05:52;13.90;94.70
32366;DHT22;18837;46.832;16.838;2022-10-31T07:08:24;13.90;93.50
32366;DHT22;18837;46.832;16.838;2022-10-31T07:10:55;13.90;94.00
32366;DHT22;18837;46.832;16.838;2022-10-31T07:13:21;13.90;93.20
32366;DHT22;18837;46.832;16.838;2022-10-31T07:15:52;13.90;93.30
32366;DHT22;18837;46.832;16.838;2022-10-31T07:18:17;13.90;93.20
32366;DHT22;18837;46.832;16.838;2022-10-31T07:20:43;13.90;93.40
32366;DHT22;18837;46.832;16.838;2022-10-31T07:23:10;13.90;93.40
32366;DHT22;18837;46.832;16.838;2022-10-31T07:25:37;13.90;93.50
32366;DHT22;18837;46.832;16.838;2022-10-31T07:28:03;13.80;93.20
32366;DHT22;18837;46.832;16.838;2022-10-31T07:30:28;13.80;94.20
32366;DHT22;18837;46.832;16.838;2022-10-31T07:32:54;13.80;93.50
32366;DHT22;18837;46.832;16.838;2022-10-31T07:35:26;13.80;93.50
32366;DHT22;18837;46.832;16.838;2022-10-31T07:37:53;13.80;93.10
32366;DHT22;18837;46.832;16.838;2022-10-31T07:40:32;13.80;93.30
32366;DHT22;18837;46.832;16.838;2022-10-31T07:43:11;13.80;93.30
32366;DHT22;18837;46.832;16.838;2022-10-31T07:45:37;13.80;93.40
32366;DHT22;18837;46.832;16.838;2022-10-31T07:48:03;13.80;93.50
32366;DHT22;18837;46.832;16.838;2022-10-31T07:50:30;13.80;93.70
32366;DHT22;18837;46.832;16.838;2022-10-31T07:53:02;13.90;93.20
32366;DHT22;18837;46.832;16.838;2022-10-31T07:55:29;13.90;94.60
32366;DHT22;18837;46.832;16.838;2022-10-31T07:57:58;13.80;93.30
32366;DHT22;18837;46.832;16.838;2022-10-31T08:00:24;13.90;93.20
32366;DHT22;18837;46.832;16.838;2022-10-31T08:03:05;13.90;93.50
32366;DHT22;18837;46.832;16.838;2022-10-31T08:05:31;13.90;94.80
32366;DHT22;18837;46.832;16.838;2022-10-31T08:08:04;13.90;93.30
32366;DHT22;18837;46.832;16.838;2022-10-31T08:10:30;13.90;94.50
32366;DHT22;18837;46.832;16.838;2022-10-31T08:13:26;13.90;93.40
32366;DHT22;18837;46.832;16.838;2022-10-31T08:15:52;13.90;93.80
32366;DHT22;18837;46.832;16.838;2022-10-31T08:18:19;13.90;93.30
32366;DHT22;18837;46.832;16.838;2022-10-31T08:20:45;13.90;93.30
32366;DHT22;18837;46.832;16.838;2022-10-31T08:23:12;13.90;93.90
32366;DHT22;18837;46.832;16.838;2022-10-31T08:25:38;13.90;93.40
32366;DHT22;18837;46.832;16.838;2022-10-31T08:28:11;13.90;93.50
32366;DHT22;18837;46.832;16.838;2022-10-31T08:30:46;13.90;93.30
32366;DHT22;18837;46.832;16.838;2022-10-31T08:33:15;13.90;93.40
32366;DHT22;18837;46.832;16.838;2022-10-31T08:35:41;13.90;93.20
32366;DHT22;18837;46.832;16.838;2022-10-31T08:38:12;13.90;94.40
32366;DHT22;18837;46.832;16.838;2022-10-31T08:40:38;13.90;93.10
32366;DHT22;18837;46.832;16.838;2022-10-31T08:43:14;13.90;92.50
32366;DHT22;18837;46.832;16.838;2022-10-31T08:45:41;13.90;93.20
32366;DHT22;18837;46.832;16.838;2022-10-31T08:48:14;13.90;93.10
32366;DHT22;18837;46.832;16.838;2022-10-31T08:50:41;14.00;93.00
32366;DHT22;18837;46.832;16.838;2022-10-31T08:53:13;14.00;93.10
32366;DHT22;18837;46.832;16.838;2022-10-31T08:55:40;14.00;92.90
32366;DHT22;18837;46.832;16.838;2022-10-31T08:58:08;14.00;93.20
32366;DHT22;18837;46.832;16.838;2022-10-31T09:00:35;14.00;93.00
32366;DHT22;18837;46.832;16.838;2022-10-31T09:03:23;14.00;93.10
32366;DHT22;18837;46.832;16.838;2022-10-31T09:05:57;14.00;93.00
32366;DHT22;18837;46.832;16.838;2022-10-31T09:08:24;14.00;93.00
32366;DHT22;18837;46.832;16.838;2022-10-31T09:10:49;14.00;93.30
32366;DHT22;18837;46.832;16.838;2022-10-31T09:13:18;14.00;93.50
32366;DHT22;18837;46.832;16.838;2022-10-31T09:15:45;14.00;93.20
32366;DHT22;18837;46.832;16.838;2022-10-31T09:18:20;14.00;93.10
32366;DHT22;18837;46.832;16.838;2022-10-31T09:20:47;14.00;93.10
32366;DHT22;18837;46.832;16.838;2022-10-31T09:23:21;14.00;93.40
32366;DHT22;18837;46.832;16.838;2022-10-31T09:25:49;14.00;93.10
32366;DHT22;18837;46.832;16.838;2022-10-31T09:28:17;14.00;93.40
32366;DHT22;18837;46.832;16.838;2022-10-31T09:30:49;14.00;93.30
32366;DHT22;18837;46.832;16.838;2022-10-31T09:33:16;14.00;93.20
32366;DHT22;18837;46.832;16.838;2022-10-31T09:35:42;14.00;93.30
32366;DHT22;18837;46.832;16.838;2022-10-31T09:38:16;14.00;93.30
32366;DHT22;18837;46.832;16.838;2022-10-31T09:41:08;14.10;93.20
32366;DHT22;18837;46.832;16.838;2022-10-31T09:46:59;14.10;94.60
32366;DHT22;18837;46.832;16.838;2022-10-31T09:52:10;14.20;93.30
32366;DHT22;18837;46.832;16.838;2022-10-31T09:54:41;14.20;93.20
32366;DHT22;18837;46.832;16.838;2022-10-31T09:57:15;14.10;94.40
32366;DHT22;18837;46.832;16.838;2022-10-31T09:59:43;14.10;93.00
32366;DHT22;18837;46.832;16.838;2022-10-31T10:05:00;14.10;93.10
32366;DHT22;18837;46.832;16.838;2022-10-31T10:10:08;14.10;93.10
32366;DHT22;18837;46.832;16.838;2022-10-31T10:26:53;14.10;94.00
32366;DHT22;18837;46.832;16.838;2022-10-31T10:29:36;14.20;92.90
32366;DHT22;18837;46.832;16.838;2022-10-31T10:32:25;14.20;94.10
32366;DHT22;18837;46.832;16.838;2022-10-31T10:34:56;14.20;93.10
32366;DHT22;18837;46.832;16.838;2022-10-31T10:37:37;14.30;92.80
32366;DHT22;18837;46.832;16.838;2022-10-31T10:40:13;14.30;92.90
32366;DHT22;18837;46.832;16.838;2022-10-31T10:42:44;14.30;93.00
32366;DHT22;18837;46.832;16.838;2022-10-31T10:46:17;14.30;92.80
32366;DHT22;18837;46.832;16.838;2022-10-31T10:49:40;14.30;94.10
32366;DHT22;18837;46.832;16.838;2022-10-31T10:52:25;14.30;94.00
32366;DHT22;18837;46.832;16.838;2022-10-31T11:00:02;14.20;92.80
32366;DHT22;18837;46.832;16.838;2022-10-31T11:02:32;14.20;92.00
32366;DHT22;18837;46.832;16.838;2022-10-31T11:05:58;14.20;92.80
32366;DHT22;18837;46.832;16.838;2022-10-31T11:07:59;14.20;92.90
32366;DHT22;18837;46.832;16.838;2022-10-31T11:10:25;14.20;93.00
32366;DHT22;18837;46.832;16.838;2022-10-31T11:13:20;14.20;92.80
32366;DHT22;18837;46.832;16.838;2022-10-31T11:18:46;14.30;93.80
32366;DHT22;18837;46.832;16.838;2022-10-31T11:21:29;14.30;94.00
32366;DHT22;18837;46.832;16.838;2022-10-31T11:24:24;14.30;93.00
32366;DHT22;18837;46.832;16.838;2022-10-31T11:27:11;14.40;92.80
32366;DHT22;18837;46.832;16.838;2022-10-31T11:32:26;14.50;92.50
32366;DHT22;18837;46.832;16.838;2022-10-31T11:35:02;14.50;92.70
32366;DHT22;18837;46.832;16.838;2022-10-31T11:37:32;14.50;92.90
32366;DHT22;18837;46.832;16.838;2022-10-31T11:40:06;14.50;92.80
32366;DHT22;18837;46.832;16.838;2022-10-31T11:42:40;14.40;93.00
32366;DHT22;18837;46.832;16.838;2022-10-31T11:45:30;14.40;92.60
32366;DHT22;18837;46.832;16.838;2022-10-31T11:47:57;14.40;93.80
32366;DHT22;18837;46.832;16.838;2022-10-31T11:50:40;14.40;92.90
32366;DHT22;18837;46.832;16.838;2022-10-31T11:53:16;14.40;92.90
32366;DHT22;18837;46.832;16.838;2022-10-31T11:55:43;14.40;92.80
32366;DHT22;18837;46.832;16.838;2022-10-31T11:58:25;14.30;92.80
32366;DHT22;18837;46.832;16.838;2022-10-31T12:00:54;14.30;92.80
32366;DHT22;18837;46.832;16.838;2022-10-31T12:08:19;14.30;92.80
32366;DHT22;18837;46.832;16.838;2022-10-31T12:19:42;14.50;93.80
32366;DHT22;18837;46.832;16.838;2022-10-31T12:24:53;14.50;93.50
32366;DHT22;18837;46.832;16.838;2022-10-31T12:30:21;14.60;93.60
32366;DHT22;18837;46.832;16.838;2022-10-31T12:35:40;14.50;93.30
32366;DHT22;18837;46.832;16.838;2022-10-31T12:57:54;14.50;93.90
32366;DHT22;18837;46.832;16.838;2022-10-31T13:00:22;14.50;94.10
32366;DHT22;18837;46.832;16.838;2022-10-31T13:02:58;14.50;93.10
32366;DHT22;18837;46.832;16.838;2022-10-31T13:05:41;14.50;93.90
32366;DHT22;18837;46.832;16.838;2022-10-31T13:08:17;14.50;92.80
32366;DHT22;18837;46.832;16.838;2022-10-31T13:11:09;14.60;93.70
32366;DHT22;18837;46.832;16.838;2022-10-31T13:16:28;14.60;92.80
32366;DHT22;18837;46.832;16.838;2022-10-31T13:19:02;14.70;92.80
32366;DHT22;18837;46.832;16.838;2022-10-31T13:21:30;14.70;93.60
32366;DHT22;18837;46.832;16.838;2022-10-31T13:24:02;14.70;93.10
32366;DHT22;18837;46.832;16.838;2022-10-31T13:26:38;14.60;92.70
32366;DHT22;18837;46.832;16.838;2022-10-31T13:29:25;14.60;92.80
32366;DHT22;18837;46.832;16.838;2022-10-31T13:31:51;14.60;92.70
32366;DHT22;18837;46.832;16.838;2022-10-31T13:34:40;14.60;92.90
32366;DHT22;18837;46.832;16.838;2022-10-31T13:37:12;14.50;92.80
32366;DHT22;18837;46.832;16.838;2022-10-31T13:45:50;14.40;94.00
32366;DHT22;18837;46.832;16.838;2022-10-31T13:50:54;14.40;93.00
32366;DHT22;18837;46.832;16.838;2022-10-31T13:53:22;14.40;92.80
32366;DHT22;18837;46.832;16.838;2022-10-31T13:55:49;14.40;92.70
32366;DHT22;18837;46.832;16.838;2022-10-31T13:58:24;14.40;92.90
32366;DHT22;18837;46.832;16.838;2022-10-31T14:03:29;14.50;92.90
32366;DHT22;18837;46.832;16.838;2022-10-31T14:06:02;14.50;92.70
32366;DHT22;18837;46.832;16.838;2022-10-31T14:08:31;14.60;92.70
32366;DHT22;18837;46.832;16.838;2022-10-31T14:11:04;14.60;92.80
32366;DHT22;18837;46.832;16.838;2022-10-31T14:13:50;14.70;93.90
32366;DHT22;18837;46.832;16.838;2022-10-31T14:16:37;14.60;92.70
32366;DHT22;18837;46.832;16.838;2022-10-31T14:19:18;14.60;93.70
32366;DHT22;18837;46.832;16.838;2022-10-31T14:21:46;14.50;92.80
32366;DHT22;18837;46.832;16.838;2022-10-31T14:27:02;14.50;93.80
32366;DHT22;18837;46.832;16.838;2022-10-31T14:29:33;14.50;93.70
32366;DHT22;18837;46.832;16.838;2022-10-31T14:40:25;14.40;93.80
32366;DHT22;18837;46.832;16.838;2022-10-31T14:43:17;14.30;94.00
32366;DHT22;18837;46.832;16.838;2022-10-31T14:51:47;14.30;93.90
32366;DHT22;18837;46.832;16.838;2022-10-31T14:54:35;14.40;92.70
32366;DHT22;18837;46.832;16.838;2022-10-31T14:57:23;14.40;92.90
32366;DHT22;18837;46.832;16.838;2022-10-31T14:59:59;14.40;92.80
32366;DHT22;18837;46.832;16.838;2022-10-31T15:02:31;14.50;92.70
32366;DHT22;18837;46.832;16.838;2022-10-31T15:05:11;14.50;92.80
32366;DHT22;18837;46.832;16.838;2022-10-31T15:07:59;14.50;93.20
32366;DHT22;18837;46.832;16.838;2022-10-31T15:10:30;14.50;92.80
32366;DHT22;18837;46.832;16.838;2022-10-31T15:13:18;14.50;93.70
32366;DHT22;18837;46.832;16.838;2022-10-31T15:15:47;14.40;93.90
32366;DHT22;18837;46.832;16.838;2022-10-31T15:18:19;14.40;93.30
32366;DHT22;18837;46.832;16.838;2022-10-31T15:20:46;14.30;92.70
32366;DHT22;18837;46.832;16.838;2022-10-31T15:23:27;14.30;93.00
32366;DHT22;18837;46.832;16.838;2022-10-31T15:26:19;14.30;93.00
32366;DHT22;18837;46.832;16.838;2022-10-31T15:28:46;14.30;94.00
32366;DHT22;18837;46.832;16.838;2022-10-31T15:31:18;14.20;93.00
32366;DHT22;18837;46.832;16.838;2022-10-31T15:33:47;14.30;93.40
32366;DHT22;18837;46.832;16.838;2022-10-31T15:36:24;14.20;92.90
32366;DHT22;18837;46.832;16.838;2022-10-31T15:38:51;14.20;93.00
32366;DHT22;18837;46.832;16.838;2022-10-31T15:41:44;14.20;93.00
32366;DHT22;18837;46.832;16.838;2022-10-31T15:44:18;14.20;94.40
32366;DHT22;18837;46.832;16.838;2022-10-31T15:46:58;14.20;92.90
32366;DHT22;18837;46.832;16.838;2022-10-31T15:49:40;14.20;94.20
32366;DHT22;18837;46.832;16.838;2022-10-31T15:54:53;14.30;94.50
32366;DHT22;18837;46.832;16.838;2022-10-31T15:57:41;14.30;94.20
32366;DHT22;18837;46.832;16.838;2022-10-31T16:00:31;14.30;92.90
32366;DHT22;18837;46.832;16.838;2022-10-31T16:08:44;14.20;93.10
32366;DHT22;18837;46.832;16.838;2022-10-31T16:14:05;14.20;93.90
32366;DHT22;18837;46.832;16.838;2022-10-31T16:16:45;14.20;94.60
32366;DHT22;18837;46.832;16.838;2022-10-31T16:19:20;14.20;94.70
32366;DHT22;18837;46.832;16.838;2022-10-31T16:21:49;14.10;93.10
32366;DHT22;18837;46.832;16.838;2022-10-31T16:24:26;14.10;93.10
32366;DHT22;18837;46.832;16.838;2022-10-31T16:26:56;14.10;93.20
32366;DHT22;18837;46.832;16.838;2022-10-31T16:29:43;14.10;93.20
32366;DHT22;18837;46.832;16.838;2022-10-31T16:37:57;14.10;93.30
32366;DHT22;18837;46.832;16.838;2022-10-31T16:40:23;14.10;93.30
32366;DHT22;18837;46.832;16.838;2022-10-31T16:42:49;14.10;93.30
32366;DHT22;18837;46.832;16.838;2022-10-31T16:45:21;14.10;93.40
32366;DHT22;18837;46.832;16.838;2022-10-31T16:47:48;14.10;94.50
32366;DHT22;18837;46.832;16.838;2022-10-31T16:50:23;14.10;93.80
32366;DHT22;18837;46.832;16.838;2022-10-31T16:52:49;14.20;94.40
32366;DHT22;18837;46.832;16.838;2022-10-31T16:55:17;14.10;93.50
32366;DHT22;18837;46.832;16.838;2022-10-31T16:57:47;14.10;93.20
32366;DHT22;18837;46.832;16.838;2022-10-31T17:00:24;14.10;93.20
32366;DHT22;18837;46.832;16.838;2022-10-31T17:02:52;14.10;94.40
32366;DHT22;18837;46.832;16.838;2022-10-31T17:05:42;14.10;93.30
32366;DHT22;18837;46.832;16.838;2022-10-31T17:08:30;14.10;94.70
32366;DHT22;18837;46.832;16.838;2022-10-31T17:10:57;14.00;94.50
32366;DHT22;18837;46.832;16.838;2022-10-31T17:13:26;14.00;93.50
32366;DHT22;18837;46.832;16.838;2022-10-31T17:15:55;14.00;93.60
32366;DHT22;18837;46.832;16.838;2022-10-31T17:18:21;14.00;93.50
32366;DHT22;18837;46.832;16.838;2022-10-31T17:20:48;14.00;93.90
32366;DHT22;18837;46.832;16.838;2022-10-31T17:23:15;14.00;93.70
32366;DHT22;18837;46.832;16.838;2022-10-31T17:25:43;14.00;93.40
32366;DHT22;18837;46.832;16.838;2022-10-31T17:28:11;14.00;94.10
32366;DHT22;18837;46.832;16.838;2022-10-31T17:30:39;14.00;93.30
32366;DHT22;18837;46.832;16.838;2022-10-31T17:33:05;14.00;93.20
32366;DHT22;18837;46.832;16.838;2022-10-31T17:35:31;14.00;93.60
32366;DHT22;18837;46.832;16.838;2022-10-31T17:37:56;14.00;93.70
32366;DHT22;18837;46.832;16.838;2022-10-31T17:40:37;14.00;93.40
32366;DHT22;18837;46.832;16.838;2022-10-31T17:43:27;14.10;93.20
32366;DHT22;18837;46.832;16.838;2022-10-31T17:45:53;14.10;94.70
32366;DHT22;18837;46.832;16.838;2022-10-31T17:48:18;14.10;93.60
32366;DHT22;18837;46.832;16.838;2022-10-31T17:50:44;14.10;93.50
32366;DHT22;18837;46.832;16.838;2022-10-31T17:53:10;14.00;93.40
32366;DHT22;18837;46.832;16.838;2022-10-31T17:55:35;14.10;93.40
32366;DHT22;18837;46.832;16.838;2022-10-31T17:58:02;14.00;93.40
32366;DHT22;18837;46.832;16.838;2022-10-31T18:00:29;14.00;93.50
32366;DHT22;18837;46.832;16.838;2022-10-31T18:02:54;14.00;93.30
32366;DHT22;18837;46.832;16.838;2022-10-31T18:05:20;14.00;93.70
32366;DHT22;18837;46.832;16.838;2022-10-31T18:07:49;14.00;93.60
32366;DHT22;18837;46.832;16.838;2022-10-31T18:10:15;13.90;93.30
32366;DHT22;18837;46.832;16.838;2022-10-31T18:12:41;14.00;93.60
32366;DHT22;18837;46.832;16.838;2022-10-31T18:15:19;13.90;93.50
32366;DHT22;18837;46.832;16.838;2022-10-31T18:17:57;13.90;93.50
32366;DHT22;18837;46.832;16.838;2022-10-31T18:20:23;13.90;93.40
32366;DHT22;18837;46.832;16.838;2022-10-31T18:22:49;13.90;93.60
32366;DHT22;18837;46.832;16.838;2022-10-31T18:25:15;13.90;93.70
32366;DHT22;18837;46.832;16.838;2022-10-31T18:27:40;14.00;93.70
32366;DHT22;18837;46.832;16.838;2022-10-31T18:30:06;14.00;93.70